createdAt,value
2022-10-13T00:00:49.458Z,18.20
2022-10-13T00:06:10.914Z,17.60
2022-10-13T00:11:25.027Z,20.10
2022-10-13T00:16:29.337Z,22.00
2022-10-13T00:21:32.556Z,20.10
2022-10-13T00:26:35.548Z,16.10
2022-10-13T00:31:38.552Z,22.40
2022-10-13T00:36:41.656Z,16.30
2022-10-13T00:41:45.581Z,17.40
2022-10-13T00:46:48.589Z,16.20
2022-10-13T00:51:51.896Z,16.70
2022-10-13T00:56:55.756Z,15.00
2022-10-13T01:02:00.938Z,17.90
2022-10-13T01:07:05.811Z,14.10
2022-10-13T01:12:19.368Z,17.50
2022-10-13T01:17:42.355Z,15.30
2022-10-13T01:23:37.458Z,13.00
2022-10-13T01:29:33.314Z,11.30
2022-10-13T01:35:40.932Z,14.60
2022-10-13T01:41:10.990Z,12.50
2022-10-13T01:46:26.439Z,16.80
2022-10-13T01:51:32.651Z,15.60
2022-10-13T01:56:35.968Z,12.70
2022-10-13T02:02:18.860Z,12.80
2022-10-13T02:07:49.503Z,14.90
2022-10-13T02:13:01.227Z,12.90
2022-10-13T02:18:06.140Z,12.10
2022-10-13T02:23:13.992Z,18.40
2022-10-13T02:28:18.343Z,16.20
2022-10-13T02:33:21.672Z,12.40
2022-10-13T02:38:25.283Z,14.10
2022-10-13T02:43:28.799Z,13.60
2022-10-13T02:48:31.905Z,14.80
2022-10-13T02:53:35.421Z,10.70
2022-10-13T02:58:38.873Z,15.40
2022-10-13T03:03:43.788Z,20.00
2022-10-13T03:08:46.822Z,17.20
2022-10-13T03:13:49.896Z,15.40
2022-10-13T03:18:52.924Z,14.20
2022-10-13T03:23:55.907Z,18.00
2022-10-13T03:28:59.140Z,14.10
2022-10-13T03:34:03.349Z,12.00
2022-10-13T03:39:06.893Z,17.20
2022-10-13T03:44:13.534Z,25.90
2022-10-13T03:49:17.612Z,25.30
2022-10-13T03:54:20.581Z,16.00
2022-10-13T03:59:23.615Z,38.30
2022-10-13T04:04:28.841Z,37.60
2022-10-13T04:09:32.082Z,29.40
2022-10-13T04:14:35.259Z,16.90
2022-10-13T04:19:38.213Z,24.30
2022-10-13T04:24:41.332Z,17.60
2022-10-13T04:29:44.412Z,18.50
2022-10-13T04:34:47.478Z,11.80
2022-10-13T04:39:50.616Z,21.70
2022-10-13T04:44:53.589Z,17.50
2022-10-13T04:49:56.618Z,16.10
2022-10-13T04:54:59.700Z,16.90
2022-10-13T05:00:07.488Z,17.70
2022-10-13T05:05:11.029Z,16.10
2022-10-13T05:10:14.885Z,16.00
2022-10-13T05:15:18.265Z,14.60
2022-10-13T05:20:21.296Z,18.50
2022-10-13T05:25:24.383Z,19.50
2022-10-13T05:30:27.508Z,22.20
2022-10-13T05:35:30.909Z,19.30
2022-10-13T05:40:34.009Z,16.90
2022-10-13T05:45:37.212Z,21.40
2022-10-13T05:50:41.571Z,21.30
2022-10-13T05:55:44.859Z,22.80
2022-10-13T06:00:49.628Z,23.30
2022-10-13T06:05:53.278Z,28.50
2022-10-13T06:10:56.657Z,26.50
2022-10-13T06:15:59.752Z,22.20
2022-10-13T06:21:03.290Z,13.10
2022-10-13T06:26:09.235Z,17.70
2022-10-13T06:31:12.566Z,17.30
2022-10-13T06:36:15.851Z,18.40
2022-10-13T06:41:19.265Z,20.20
2022-10-13T06:46:22.273Z,18.30
2022-10-13T06:51:25.913Z,17.50
2022-10-13T06:56:30.629Z,16.30
2022-10-13T07:01:36.750Z,16.20
2022-10-13T07:06:43.710Z,19.50
2022-10-13T07:11:47.834Z,23.90
2022-10-13T07:16:50.940Z,31.70
2022-10-13T07:21:54.147Z,25.00
2022-10-13T07:26:57.261Z,27.50
2022-10-13T07:32:00.260Z,19.00
2022-10-13T07:37:03.406Z,13.50
2022-10-13T07:42:06.468Z,10.70
2022-10-13T07:47:09.987Z,8.70
2022-10-13T07:52:13.093Z,9.60
2022-10-13T07:57:16.207Z,14.20
2022-10-13T08:02:21.646Z,14.60
2022-10-13T08:07:25.183Z,9.80
2022-10-13T08:12:28.284Z,8.30
2022-10-13T08:17:31.397Z,8.40
2022-10-13T08:22:34.605Z,7.40
2022-10-13T08:27:50.537Z,7.60
2022-10-13T08:32:54.427Z,15.50
2022-10-13T08:37:57.532Z,10.70
2022-10-13T08:43:00.785Z,9.30
2022-10-13T08:48:12.668Z,10.20
2022-10-13T08:53:48.947Z,9.50
2022-10-13T08:58:54.608Z,17.10
2022-10-13T09:04:18.190Z,12.60
2022-10-13T09:09:21.404Z,14.00
2022-10-13T09:14:31.544Z,7.70
2022-10-13T09:19:39.000Z,5.90
2022-10-13T09:24:42.391Z,11.50
2022-10-13T09:29:46.322Z,5.50
2022-10-13T09:34:51.748Z,5.80
2022-10-13T09:40:21.827Z,8.50
2022-10-13T09:45:26.987Z,9.90
2022-10-13T09:50:33.543Z,7.80
2022-10-13T09:55:36.765Z,8.70
2022-10-13T10:00:40.689Z,7.60
2022-10-13T10:05:53.910Z,6.20
2022-10-13T10:11:00.840Z,9.00
2022-10-13T10:16:38.484Z,6.70
2022-10-13T10:21:56.198Z,6.10
2022-10-13T10:27:06.841Z,8.70
2022-10-13T10:32:28.929Z,13.00
2022-10-13T10:38:22.697Z,7.00
2022-10-13T10:43:31.994Z,5.80
2022-10-13T10:48:39.763Z,11.90
2022-10-13T10:56:39.228Z,7.50
2022-10-13T11:02:01.193Z,6.70
2022-10-13T11:07:05.510Z,8.30
2022-10-13T11:12:22.863Z,8.50
2022-10-13T11:17:39.067Z,8.60
2022-10-13T11:22:42.171Z,7.30
2022-10-13T11:27:45.592Z,5.70
2022-10-13T11:32:55.851Z,9.20
2022-10-13T11:38:17.779Z,10.80
2022-10-13T11:43:36.475Z,10.60
2022-10-13T11:49:17.033Z,8.30
2022-10-13T11:54:39.830Z,7.40
2022-10-13T11:59:48.270Z,8.50
2022-10-13T12:05:24.646Z,8.30
2022-10-13T12:10:36.360Z,10.10
2022-10-13T12:15:44.583Z,7.70
2022-10-13T12:26:00.176Z,9.80
2022-10-13T12:31:03.731Z,7.40
2022-10-13T12:36:35.529Z,7.20
2022-10-13T12:41:46.209Z,11.30
2022-10-13T12:46:58.885Z,12.80
2022-10-13T12:52:12.166Z,10.00
2022-10-13T12:57:35.548Z,10.90
2022-10-13T13:02:39.302Z,19.80
2022-10-13T13:07:52.937Z,7.10
2022-10-13T13:12:56.758Z,9.00
2022-10-13T13:18:39.874Z,9.70
2022-10-13T13:23:51.187Z,8.10
2022-10-13T13:28:57.264Z,7.60
2022-10-13T13:34:00.383Z,8.30
2022-10-13T13:39:03.886Z,9.50
2022-10-13T13:44:06.891Z,11.60
2022-10-13T13:49:12.501Z,10.40
2022-10-13T13:54:15.559Z,14.60
2022-10-13T13:59:18.670Z,9.50
2022-10-13T14:04:21.674Z,13.00
2022-10-13T14:09:24.981Z,12.10
2022-10-13T14:14:31.979Z,8.70
2022-10-13T14:19:35.184Z,9.90
2022-10-13T14:24:38.413Z,11.80
2022-10-13T14:29:41.914Z,8.90
2022-10-13T14:34:45.017Z,13.90
2022-10-13T14:39:48.121Z,9.70
2022-10-13T14:44:51.228Z,16.00
2022-10-13T14:49:54.449Z,17.20
2022-10-13T14:54:57.549Z,10.00
2022-10-13T15:00:02.036Z,12.10
2022-10-13T15:05:06.721Z,9.80
2022-10-13T15:10:10.244Z,22.80
2022-10-13T15:15:13.271Z,11.10
2022-10-13T15:20:16.468Z,15.00
2022-10-13T15:25:19.464Z,17.10
2022-10-13T15:30:22.563Z,22.30
2022-10-13T15:35:29.251Z,18.30
2022-10-13T15:40:36.656Z,23.00
2022-10-13T15:45:40.483Z,33.70
2022-10-13T15:50:44.101Z,40.30
2022-10-13T15:55:48.955Z,38.60
2022-10-13T16:00:52.057Z,41.10
2022-10-13T16:05:55.149Z,61.50
2022-10-13T16:10:58.519Z,78.10
2022-10-13T16:16:02.123Z,142.70
2022-10-13T16:21:18.820Z,103.40
2022-10-13T16:26:22.492Z,122.90
2022-10-13T16:31:25.449Z,123.80
2022-10-13T16:36:28.424Z,137.20
2022-10-13T16:41:31.569Z,148.20
2022-10-13T16:46:34.831Z,142.00
2022-10-13T16:51:38.172Z,139.80
2022-10-13T16:56:41.280Z,140.20
2022-10-13T17:01:45.508Z,170.40
2022-10-13T17:06:48.656Z,198.20
2022-10-13T17:11:51.924Z,183.90
2022-10-13T17:16:57.745Z,143.20
2022-10-13T17:22:01.419Z,124.40
2022-10-13T17:27:04.522Z,113.50
2022-10-13T17:32:08.445Z,126.00
2022-10-13T17:37:11.554Z,129.60
2022-10-13T17:42:14.655Z,142.30
2022-10-13T17:47:18.021Z,159.10
2022-10-13T17:52:21.676Z,164.40
2022-10-13T17:57:24.795Z,160.80
2022-10-13T18:02:27.909Z,146.10
2022-10-13T18:07:30.836Z,143.50
2022-10-13T18:12:33.964Z,237.70
2022-10-13T18:17:36.974Z,204.60
2022-10-13T18:22:39.915Z,141.20
2022-10-13T18:27:43.441Z,128.40
2022-10-13T18:32:46.647Z,125.10
2022-10-13T18:37:52.324Z,125.70
2022-10-13T18:42:55.412Z,129.60
2022-10-13T18:47:58.621Z,147.80
2022-10-13T18:53:01.573Z,138.80
2022-10-13T18:58:04.665Z,114.20
2022-10-13T19:03:08.560Z,107.40
2022-10-13T19:08:11.596Z,120.40
2022-10-13T19:13:14.661Z,127.90
2022-10-13T19:18:17.779Z,145.60
2022-10-13T19:23:22.174Z,156.20
2022-10-13T19:28:25.869Z,128.80
2022-10-13T19:33:28.946Z,116.00
2022-10-13T19:38:31.965Z,93.10
2022-10-13T19:43:35.056Z,89.50
2022-10-13T19:48:38.095Z,85.70
2022-10-13T19:53:42.238Z,71.50
2022-10-13T19:58:45.183Z,58.90
2022-10-13T20:03:48.949Z,60.20
2022-10-13T20:08:52.207Z,65.20
2022-10-13T20:13:55.230Z,54.50
2022-10-13T20:19:01.002Z,52.60
2022-10-13T20:24:04.213Z,45.50
2022-10-13T20:29:07.866Z,33.40
2022-10-13T20:34:11.555Z,33.50
2022-10-13T20:39:14.837Z,36.40
2022-10-13T20:44:17.943Z,21.10
2022-10-13T20:49:21.126Z,13.50
2022-10-13T20:54:24.155Z,25.20
2022-10-13T20:59:27.626Z,36.80
2022-10-13T21:04:30.577Z,17.10
2022-10-13T21:09:36.502Z,14.30
2022-10-13T21:14:39.444Z,16.80
2022-10-13T21:19:42.899Z,13.30
2022-10-13T21:24:45.939Z,14.60
2022-10-13T21:29:48.902Z,17.10
2022-10-13T21:34:53.767Z,15.40
2022-10-13T21:39:56.665Z,15.60
2022-10-13T21:44:59.906Z,18.40
2022-10-13T21:50:04.853Z,16.50
2022-10-13T21:55:08.654Z,14.50
2022-10-13T22:00:12.864Z,16.00
2022-10-13T22:05:15.943Z,14.80
2022-10-13T22:10:18.949Z,19.50
2022-10-13T22:15:21.828Z,15.70
2022-10-13T22:20:24.949Z,19.40
2022-10-13T22:25:27.951Z,16.30
2022-10-13T22:30:30.920Z,16.70
2022-10-13T22:35:35.874Z,14.40
2022-10-13T22:40:39.276Z,14.60
2022-10-13T22:45:51.537Z,15.10
2022-10-13T22:50:54.562Z,14.30
2022-10-13T22:55:57.748Z,14.60
2022-10-13T23:01:14.641Z,22.10
2022-10-13T23:06:22.052Z,16.70
2022-10-13T23:11:25.046Z,16.30
2022-10-13T23:16:28.605Z,19.30
2022-10-13T23:21:32.067Z,17.00
2022-10-13T23:26:35.168Z,14.10
2022-10-13T23:31:39.066Z,18.60
2022-10-13T23:36:42.057Z,21.60
2022-10-13T23:41:45.029Z,23.40
2022-10-13T23:46:47.978Z,27.20
2022-10-13T23:51:50.866Z,28.60
2022-10-13T23:56:53.869Z,28.20
